sensor_id;sensor_type;location;lat;lon;timestamp;P1;durP1;ratioP1;P2;durP2;ratioP2
30000;SDS011;16845;48.670;9.000;2022-09-20T00:01:03;13.15;;;2.75;;
30000;SDS011;16845;48.670;9.000;2022-09-20T00:03:33;12.95;;;2.92;;
30000;SDS011;16845;48.670;9.000;2022-09-20T00:06:02;6.88;;;2.97;;
30000;SDS011;16845;48.670;9.000;2022-09-20T00:08:31;9.25;;;3.13;;
30000;SDS011;16845;48.670;9.000;2022-09-20T00:11:01;11.93;;;4.30;;
30000;SDS011;16845;48.670;9.000;2022-09-20T00:13:29;7.05;;;2.50;;
30000;SDS011;16845;48.670;9.000;2022-09-20T00:15:58;10.65;;;3.03;;
30000;SDS011;16845;48.670;9.000;2022-09-20T00:18:26;4.55;;;2.63;;
30000;SDS011;16845;48.670;9.000;2022-09-20T00:20:54;11.05;;;3.45;;
30000;SDS011;16845;48.670;9.000;2022-09-20T00:23:22;8.93;;;2.58;;
30000;SDS011;16845;48.670;9.000;2022-09-20T00:25:53;13.27;;;2.63;;
30000;SDS011;16845;48.670;9.000;2022-09-20T00:28:24;5.57;;;2.83;;
30000;SDS011;16845;48.670;9.000;2022-09-20T00:30:53;8.02;;;3.28;;
30000;SDS011;16845;48.670;9.000;2022-09-20T00:33:22;10.63;;;2.97;;
30000;SDS011;16845;48.670;9.000;2022-09-20T00:36:11;12.10;;;3.63;;
30000;SDS011;16845;48.670;9.000;2022-09-20T00:38:38;8.18;;;3.22;;
30000;SDS011;16845;48.670;9.000;2022-09-20T00:41:06;5.55;;;2.70;;
30000;SDS011;16845;48.670;9.000;2022-09-20T00:43:36;12.35;;;3.28;;
30000;SDS011;16845;48.670;9.000;2022-09-20T00:46:08;10.95;;;2.75;;
30000;SDS011;16845;48.670;9.000;2022-09-20T00:48:45;6.15;;;3.25;;
30000;SDS011;16845;48.670;9.000;2022-09-20T00:51:15;8.45;;;2.83;;
30000;SDS011;16845;48.670;9.000;2022-09-20T00:53:48;10.02;;;2.90;;
30000;SDS011;16845;48.670;9.000;2022-09-20T00:56:19;11.73;;;3.42;;
30000;SDS011;16845;48.670;9.000;2022-09-20T00:58:53;9.10;;;2.92;;
30000;SDS011;16845;48.670;9.000;2022-09-20T01:01:32;8.38;;;2.60;;
30000;SDS011;16845;48.670;9.000;2022-09-20T01:04:00;6.25;;;2.65;;
30000;SDS011;16845;48.670;9.000;2022-09-20T01:06:30;6.40;;;3.03;;
30000;SDS011;16845;48.670;9.000;2022-09-20T01:08:59;8.07;;;2.58;;
30000;SDS011;16845;48.670;9.000;2022-09-20T01:11:32;7.13;;;2.65;;
30000;SDS011;16845;48.670;9.000;2022-09-20T01:14:02;7.93;;;3.35;;
30000;SDS011;16845;48.670;9.000;2022-09-20T01:16:31;10.25;;;3.00;;
30000;SDS011;16845;48.670;9.000;2022-09-20T01:19:01;11.90;;;3.00;;
30000;SDS011;16845;48.670;9.000;2022-09-20T01:21:36;11.30;;;2.75;;
30000;SDS011;16845;48.670;9.000;2022-09-20T01:24:05;5.82;;;2.17;;
30000;SDS011;16845;48.670;9.000;2022-09-20T01:26:49;7.38;;;2.70;;
30000;SDS011;16845;48.670;9.000;2022-09-20T01:29:33;7.18;;;2.60;;
30000;SDS011;16845;48.670;9.000;2022-09-20T01:32:09;7.68;;;3.45;;
30000;SDS011;16845;48.670;9.000;2022-09-20T01:34:41;3.17;;;2.53;;
30000;SDS011;16845;48.670;9.000;2022-09-20T01:37:14;6.15;;;2.72;;
30000;SDS011;16845;48.670;9.000;2022-09-20T01:39:51;10.82;;;2.63;;
30000;SDS011;16845;48.670;9.000;2022-09-20T01:42:30;10.57;;;3.10;;
30000;SDS011;16845;48.670;9.000;2022-09-20T01:45:02;9.38;;;2.83;;
30000;SDS011;16845;48.670;9.000;2022-09-20T01:47:37;8.02;;;2.03;;
30000;SDS011;16845;48.670;9.000;2022-09-20T01:50:14;6.50;;;2.60;;
30000;SDS011;16845;48.670;9.000;2022-09-20T01:53:13;11.45;;;2.78;;
30000;SDS011;16845;48.670;9.000;2022-09-20T01:59:21;5.45;;;2.45;;
30000;SDS011;16845;48.670;9.000;2022-09-20T02:02:06;10.38;;;2.67;;
30000;SDS011;16845;48.670;9.000;2022-09-20T02:04:52;6.78;;;2.90;;
30000;SDS011;16845;48.670;9.000;2022-09-20T02:07:42;8.20;;;2.40;;
30000;SDS011;16845;48.670;9.000;2022-09-20T02:13:28;7.38;;;2.85;;
30000;SDS011;16845;48.670;9.000;2022-09-20T02:16:10;7.65;;;4.00;;
30000;SDS011;16845;48.670;9.000;2022-09-20T02:19:10;5.68;;;2.30;;
30000;SDS011;16845;48.670;9.000;2022-09-20T02:22:03;12.88;;;2.85;;
30000;SDS011;16845;48.670;9.000;2022-09-20T02:24:38;9.48;;;3.17;;
30000;SDS011;16845;48.670;9.000;2022-09-20T02:27:15;8.95;;;2.60;;
30000;SDS011;16845;48.670;9.000;2022-09-20T02:29:54;5.80;;;2.70;;
30000;SDS011;16845;48.670;9.000;2022-09-20T02:32:35;12.93;;;2.80;;
30000;SDS011;16845;48.670;9.000;2022-09-20T02:35:26;4.38;;;2.58;;
30000;SDS011;16845;48.670;9.000;2022-09-20T02:38:08;6.57;;;2.60;;
30000;SDS011;16845;48.670;9.000;2022-09-20T02:40:51;11.60;;;3.10;;
30000;SDS011;16845;48.670;9.000;2022-09-20T02:43:32;6.43;;;2.75;;
30000;SDS011;16845;48.670;9.000;2022-09-20T02:46:08;7.75;;;2.92;;
30000;SDS011;16845;48.670;9.000;2022-09-20T02:48:44;8.43;;;3.33;;
30000;SDS011;16845;48.670;9.000;2022-09-20T02:51:20;6.93;;;3.83;;
30000;SDS011;16845;48.670;9.000;2022-09-20T02:53:57;9.02;;;3.33;;
30000;SDS011;16845;48.670;9.000;2022-09-20T02:56:40;4.35;;;2.40;;
30000;SDS011;16845;48.670;9.000;2022-09-20T02:59:19;13.90;;;2.97;;
30000;SDS011;16845;48.670;9.000;2022-09-20T03:01:55;6.68;;;2.72;;
30000;SDS011;16845;48.670;9.000;2022-09-20T03:04:36;9.15;;;2.20;;
30000;SDS011;16845;48.670;9.000;2022-09-20T03:07:21;4.40;;;2.47;;
30000;SDS011;16845;48.670;9.000;2022-09-20T03:10:00;5.72;;;3.17;;
30000;SDS011;16845;48.670;9.000;2022-09-20T03:12:38;6.60;;;2.92;;
30000;SDS011;16845;48.670;9.000;2022-09-20T03:15:18;8.10;;;3.30;;
30000;SDS011;16845;48.670;9.000;2022-09-20T03:18:01;7.72;;;3.33;;
30000;SDS011;16845;48.670;9.000;2022-09-20T03:20:35;4.70;;;3.22;;
30000;SDS011;16845;48.670;9.000;2022-09-20T03:23:17;9.07;;;4.28;;
30000;SDS011;16845;48.670;9.000;2022-09-20T03:26:01;8.10;;;2.90;;
30000;SDS011;16845;48.670;9.000;2022-09-20T03:28:45;7.57;;;3.17;;
30000;SDS011;16845;48.670;9.000;2022-09-20T03:31:23;4.95;;;2.75;;
30000;SDS011;16845;48.670;9.000;2022-09-20T03:34:02;10.27;;;2.75;;
30000;SDS011;16845;48.670;9.000;2022-09-20T03:36:40;7.35;;;2.63;;
30000;SDS011;16845;48.670;9.000;2022-09-20T03:39:25;5.80;;;2.78;;
30000;SDS011;16845;48.670;9.000;2022-09-20T03:42:10;4.60;;;2.53;;
30000;SDS011;16845;48.670;9.000;2022-09-20T03:44:47;10.02;;;3.10;;
30000;SDS011;16845;48.670;9.000;2022-09-20T03:47:30;6.00;;;2.67;;
30000;SDS011;16845;48.670;9.000;2022-09-20T03:50:20;11.55;;;2.97;;
30000;SDS011;16845;48.670;9.000;2022-09-20T03:53:05;6.55;;;2.88;;
30000;SDS011;16845;48.670;9.000;2022-09-20T03:55:57;12.25;;;2.63;;
30000;SDS011;16845;48.670;9.000;2022-09-20T03:58:43;6.80;;;2.60;;
30000;SDS011;16845;48.670;9.000;2022-09-20T04:01:29;4.65;;;2.30;;
30000;SDS011;16845;48.670;9.000;2022-09-20T04:04:11;6.35;;;3.17;;
30000;SDS011;16845;48.670;9.000;2022-09-20T04:06:56;4.82;;;2.85;;
30000;SDS011;16845;48.670;9.000;2022-09-20T04:09:44;6.30;;;2.47;;
30000;SDS011;16845;48.670;9.000;2022-09-20T04:12:26;5.68;;;2.95;;
30000;SDS011;16845;48.670;9.000;2022-09-20T04:15:03;4.15;;;2.50;;
30000;SDS011;16845;48.670;9.000;2022-09-20T04:17:44;5.50;;;2.70;;
30000;SDS011;16845;48.670;9.000;2022-09-20T04:20:19;6.05;;;3.00;;
30000;SDS011;16845;48.670;9.000;2022-09-20T04:22:53;9.23;;;2.75;;
30000;SDS011;16845;48.670;9.000;2022-09-20T04:25:25;7.00;;;2.63;;
30000;SDS011;16845;48.670;9.000;2022-09-20T04:27:58;13.55;;;3.22;;
30000;SDS011;16845;48.670;9.000;2022-09-20T04:30:33;5.28;;;2.70;;
30000;SDS011;16845;48.670;9.000;2022-09-20T04:33:12;11.85;;;3.38;;
30000;SDS011;16845;48.670;9.000;2022-09-20T04:35:46;11.38;;;3.03;;
30000;SDS011;16845;48.670;9.000;2022-09-20T04:38:42;4.20;;;2.20;;
30000;SDS011;16845;48.670;9.000;2022-09-20T04:41:17;6.07;;;2.58;;
30000;SDS011;16845;48.670;9.000;2022-09-20T04:44:05;12.23;;;3.25;;
30000;SDS011;16845;48.670;9.000;2022-09-20T04:56:06;5.40;;;2.60;;
30000;SDS011;16845;48.670;9.000;2022-09-20T04:58:45;7.97;;;3.53;;
30000;SDS011;16845;48.670;9.000;2022-09-20T05:04:22;7.20;;;3.03;;
30000;SDS011;16845;48.670;9.000;2022-09-20T05:13:29;14.32;;;3.42;;
30000;SDS011;16845;48.670;9.000;2022-09-20T05:16:07;14.98;;;3.97;;
30000;SDS011;16845;48.670;9.000;2022-09-20T05:18:53;11.00;;;3.40;;
30000;SDS011;16845;48.670;9.000;2022-09-20T05:24:44;7.53;;;3.35;;
30000;SDS011;16845;48.670;9.000;2022-09-20T05:27:27;8.07;;;3.45;;
30000;SDS011;16845;48.670;9.000;2022-09-20T05:30:03;8.52;;;3.88;;
30000;SDS011;16845;48.670;9.000;2022-09-20T05:32:38;10.98;;;3.65;;
30000;SDS011;16845;48.670;9.000;2022-09-20T05:35:15;12.52;;;3.70;;
30000;SDS011;16845;48.670;9.000;2022-09-20T05:37:49;8.55;;;3.45;;
30000;SDS011;16845;48.670;9.000;2022-09-20T05:40:29;15.38;;;5.00;;
30000;SDS011;16845;48.670;9.000;2022-09-20T05:43:04;12.35;;;4.28;;
30000;SDS011;16845;48.670;9.000;2022-09-20T05:45:47;9.32;;;4.05;;
30000;SDS011;16845;48.670;9.000;2022-09-20T05:48:26;13.30;;;4.07;;
30000;SDS011;16845;48.670;9.000;2022-09-20T05:51:07;10.45;;;3.80;;
30000;SDS011;16845;48.670;9.000;2022-09-20T05:53:52;10.65;;;4.45;;
30000;SDS011;16845;48.670;9.000;2022-09-20T05:56:46;9.27;;;3.78;;
30000;SDS011;16845;48.670;9.000;2022-09-20T05:59:24;7.40;;;4.28;;
30000;SDS011;16845;48.670;9.000;2022-09-20T06:02:06;11.15;;;4.18;;
30000;SDS011;16845;48.670;9.000;2022-09-20T06:04:49;9.70;;;3.65;;
30000;SDS011;16845;48.670;9.000;2022-09-20T06:07:30;7.53;;;4.10;;
30000;SDS011;16845;48.670;9.000;2022-09-20T06:10:13;17.30;;;4.28;;
30000;SDS011;16845;48.670;9.000;2022-09-20T06:12:59;9.93;;;3.83;;
30000;SDS011;16845;48.670;9.000;2022-09-20T06:15:35;8.60;;;3.72;;
30000;SDS011;16845;48.670;9.000;2022-09-20T06:18:16;12.75;;;4.45;;
30000;SDS011;16845;48.670;9.000;2022-09-20T06:20:50;11.57;;;4.10;;
30000;SDS011;16845;48.670;9.000;2022-09-20T06:25:58;6.90;;;4.05;;
30000;SDS011;16845;48.670;9.000;2022-09-20T06:28:33;11.68;;;3.92;;
30000;SDS011;16845;48.670;9.000;2022-09-20T06:31:04;11.25;;;4.65;;
30000;SDS011;16845;48.670;9.000;2022-09-20T06:33:38;22.10;;;4.95;;
30000;SDS011;16845;48.670;9.000;2022-09-20T06:36:10;11.02;;;5.03;;
30000;SDS011;16845;48.670;9.000;2022-09-20T06:39:02;12.88;;;5.10;;
30000;SDS011;16845;48.670;9.000;2022-09-20T06:41:55;8.02;;;3.80;;
30000;SDS011;16845;48.670;9.000;2022-09-20T06:44:23;13.00;;;4.80;;
30000;SDS011;16845;48.670;9.000;2022-09-20T06:46:51;10.45;;;4.28;;
30000;SDS011;16845;48.670;9.000;2022-09-20T06:49:19;7.80;;;4.40;;
30000;SDS011;16845;48.670;9.000;2022-09-20T06:51:48;8.75;;;4.22;;
30000;SDS011;16845;48.670;9.000;2022-09-20T06:54:18;9.05;;;4.93;;
30000;SDS011;16845;48.670;9.000;2022-09-20T06:56:48;11.85;;;4.20;;
30000;SDS011;16845;48.670;9.000;2022-09-20T06:59:17;13.05;;;4.47;;
30000;SDS011;16845;48.670;9.000;2022-09-20T07:01:45;10.05;;;4.38;;
30000;SDS011;16845;48.670;9.000;2022-09-20T07:04:13;13.07;;;4.25;;
30000;SDS011;16845;48.670;9.000;2022-09-20T07:06:41;14.35;;;5.75;;
30000;SDS011;16845;48.670;9.000;2022-09-20T07:09:08;11.70;;;4.88;;
30000;SDS011;16845;48.670;9.000;2022-09-20T07:11:39;6.93;;;4.50;;
30000;SDS011;16845;48.670;9.000;2022-09-20T07:14:08;11.45;;;4.32;;
30000;SDS011;16845;48.670;9.000;2022-09-20T07:16:36;8.15;;;3.47;;
30000;SDS011;16845;48.670;9.000;2022-09-20T07:19:05;6.45;;;3.83;;
30000;SDS011;16845;48.670;9.000;2022-09-20T07:21:33;12.60;;;6.40;;
30000;SDS011;16845;48.670;9.000;2022-09-20T07:24:01;19.58;;;5.88;;
30000;SDS011;16845;48.670;9.000;2022-09-20T07:26:29;6.65;;;3.97;;
30000;SDS011;16845;48.670;9.000;2022-09-20T07:28:58;8.20;;;4.70;;
30000;SDS011;16845;48.670;9.000;2022-09-20T07:31:27;14.00;;;4.55;;
30000;SDS011;16845;48.670;9.000;2022-09-20T07:33:56;9.00;;;3.92;;
30000;SDS011;16845;48.670;9.000;2022-09-20T07:36:24;10.65;;;3.80;;
30000;SDS011;16845;48.670;9.000;2022-09-20T07:38:52;8.52;;;3.13;;
30000;SDS011;16845;48.670;9.000;2022-09-20T07:41:20;6.78;;;3.05;;
30000;SDS011;16845;48.670;9.000;2022-09-20T07:43:48;11.10;;;3.97;;
30000;SDS011;16845;48.670;9.000;2022-09-20T07:46:18;12.27;;;2.70;;
30000;SDS011;16845;48.670;9.000;2022-09-20T07:48:47;8.85;;;3.35;;
30000;SDS011;16845;48.670;9.000;2022-09-20T07:51:15;7.30;;;2.90;;
30000;SDS011;16845;48.670;9.000;2022-09-20T07:53:43;14.18;;;3.13;;
30000;SDS011;16845;48.670;9.000;2022-09-20T07:56:11;13.60;;;3.55;;
30000;SDS011;16845;48.670;9.000;2022-09-20T07:58:40;12.13;;;4.00;;
30000;SDS011;16845;48.670;9.000;2022-09-20T08:01:16;10.93;;;2.53;;
30000;SDS011;16845;48.670;9.000;2022-09-20T08:03:46;10.15;;;2.70;;
30000;SDS011;16845;48.670;9.000;2022-09-20T08:06:14;10.50;;;2.17;;
30000;SDS011;16845;48.670;9.000;2022-09-20T08:08:43;14.18;;;3.50;;
30000;SDS011;16845;48.670;9.000;2022-09-20T08:11:12;9.32;;;2.92;;
30000;SDS011;16845;48.670;9.000;2022-09-20T08:13:45;11.05;;;3.03;;
30000;SDS011;16845;48.670;9.000;2022-09-20T08:16:35;12.32;;;2.80;;
30000;SDS011;16845;48.670;9.000;2022-09-20T08:19:05;11.68;;;2.63;;
30000;SDS011;16845;48.670;9.000;2022-09-20T08:21:33;9.93;;;2.80;;
30000;SDS011;16845;48.670;9.000;2022-09-20T08:24:03;7.30;;;2.60;;
30000;SDS011;16845;48.670;9.000;2022-09-20T08:26:31;16.33;;;3.08;;
30000;SDS011;16845;48.670;9.000;2022-09-20T08:29:00;9.82;;;3.33;;
30000;SDS011;16845;48.670;9.000;2022-09-20T08:31:31;16.63;;;3.47;;
30000;SDS011;16845;48.670;9.000;2022-09-20T08:34:04;8.20;;;3.33;;
30000;SDS011;16845;48.670;9.000;2022-09-20T08:36:34;12.88;;;3.28;;
30000;SDS011;16845;48.670;9.000;2022-09-20T08:39:06;11.57;;;2.70;;
30000;SDS011;16845;48.670;9.000;2022-09-20T08:41:56;8.63;;;2.60;;
30000;SDS011;16845;48.670;9.000;2022-09-20T08:44:32;9.93;;;2.75;;
30000;SDS011;16845;48.670;9.000;2022-09-20T08:47:12;10.90;;;4.55;;
30000;SDS011;16845;48.670;9.000;2022-09-20T08:49:46;14.98;;;4.10;;
30000;SDS011;16845;48.670;9.000;2022-09-20T08:52:24;8.73;;;2.42;;
30000;SDS011;16845;48.670;9.000;2022-09-20T08:55:02;11.25;;;2.83;;
30000;SDS011;16845;48.670;9.000;2022-09-20T08:57:38;4.93;;;2.40;;
30000;SDS011;16845;48.670;9.000;2022-09-20T09:00:09;5.82;;;2.08;;
30000;SDS011;16845;48.670;9.000;2022-09-20T09:02:44;9.25;;;2.88;;
30000;SDS011;16845;48.670;9.000;2022-09-20T09:05:28;11.85;;;2.47;;
30000;SDS011;16845;48.670;9.000;2022-09-20T09:07:58;5.22;;;2.00;;
30000;SDS011;16845;48.670;9.000;2022-09-20T09:10:32;11.73;;;2.90;;
30000;SDS011;16845;48.670;9.000;2022-09-20T09:13:09;8.82;;;2.45;;
30000;SDS011;16845;48.670;9.000;2022-09-20T09:15:43;7.78;;;1.77;;
30000;SDS011;16845;48.670;9.000;2022-09-20T09:18:18;7.45;;;1.75;;
30000;SDS011;16845;48.670;9.000;2022-09-20T09:20:47;9.10;;;1.90;;
30000;SDS011;16845;48.670;9.000;2022-09-20T09:23:21;10.52;;;2.05;;
30000;SDS011;16845;48.670;9.000;2022-09-20T09:25:51;7.40;;;1.88;;
30000;SDS011;16845;48.670;9.000;2022-09-20T09:28:21;5.43;;;1.50;;
30000;SDS011;16845;48.670;9.000;2022-09-20T09:30:51;6.93;;;1.80;;
30000;SDS011;16845;48.670;9.000;2022-09-20T09:33:23;5.70;;;1.30;;
30000;SDS011;16845;48.670;9.000;2022-09-20T09:35:55;3.28;;;1.35;;
30000;SDS011;16845;48.670;9.000;2022-09-20T09:38:26;10.43;;;1.88;;
30000;SDS011;16845;48.670;9.000;2022-09-20T09:40:55;7.32;;;1.48;;
30000;SDS011;16845;48.670;9.000;2022-09-20T09:43:25;12.70;;;2.10;;
30000;SDS011;16845;48.670;9.000;2022-09-20T09:45:55;7.07;;;1.90;;
30000;SDS011;16845;48.670;9.000;2022-09-20T09:48:42;12.95;;;2.17;;
30000;SDS011;16845;48.670;9.000;2022-09-20T09:51:17;5.65;;;1.70;;
30000;SDS011;16845;48.670;9.000;2022-09-20T09:53:48;6.13;;;2.22;;
30000;SDS011;16845;48.670;9.000;2022-09-20T09:56:30;15.93;;;2.30;;
30000;SDS011;16845;48.670;9.000;2022-09-20T09:59:15;13.32;;;3.00;;
30000;SDS011;16845;48.670;9.000;2022-09-20T10:02:11;9.90;;;2.10;;
30000;SDS011;16845;48.670;9.000;2022-09-20T10:04:50;8.23;;;1.67;;
30000;SDS011;16845;48.670;9.000;2022-09-20T10:07:25;7.50;;;2.00;;
30000;SDS011;16845;48.670;9.000;2022-09-20T10:10:02;7.18;;;1.75;;
30000;SDS011;16845;48.670;9.000;2022-09-20T10:12:42;7.97;;;1.70;;
30000;SDS011;16845;48.670;9.000;2022-09-20T10:15:21;7.55;;;1.35;;
30000;SDS011;16845;48.670;9.000;2022-09-20T10:18:03;5.32;;;1.50;;
30000;SDS011;16845;48.670;9.000;2022-09-20T10:20:49;2.65;;;1.02;;
30000;SDS011;16845;48.670;9.000;2022-09-20T10:23:31;7.30;;;1.63;;
30000;SDS011;16845;48.670;9.000;2022-09-20T10:26:34;4.13;;;1.50;;
30000;SDS011;16845;48.670;9.000;2022-09-20T10:29:21;6.55;;;1.55;;
30000;SDS011;16845;48.670;9.000;2022-09-20T10:32:06;6.63;;;1.55;;
30000;SDS011;16845;48.670;9.000;2022-09-20T10:34:50;7.47;;;1.90;;
30000;SDS011;16845;48.670;9.000;2022-09-20T10:37:31;10.57;;;2.25;;
30000;SDS011;16845;48.670;9.000;2022-09-20T10:40:18;13.82;;;1.90;;
30000;SDS011;16845;48.670;9.000;2022-09-20T10:43:15;8.88;;;1.90;;
30000;SDS011;16845;48.670;9.000;2022-09-20T10:45:52;7.15;;;1.67;;
30000;SDS011;16845;48.670;9.000;2022-09-20T10:48:49;6.05;;;1.48;;
30000;SDS011;16845;48.670;9.000;2022-09-20T10:51:27;7.03;;;1.80;;
30000;SDS011;16845;48.670;9.000;2022-09-20T10:54:09;4.75;;;1.42;;
30000;SDS011;16845;48.670;9.000;2022-09-20T10:56:51;6.47;;;1.48;;
30000;SDS011;16845;48.670;9.000;2022-09-20T10:59:33;4.95;;;1.65;;
30000;SDS011;16845;48.670;9.000;2022-09-20T11:02:12;8.15;;;1.85;;
30000;SDS011;16845;48.670;9.000;2022-09-20T11:05:07;9.98;;;2.08;;
30000;SDS011;16845;48.670;9.000;2022-09-20T11:07:59;13.32;;;3.15;;
30000;SDS011;16845;48.670;9.000;2022-09-20T11:10:33;8.85;;;2.90;;
30000;SDS011;16845;48.670;9.000;2022-09-20T11:13:07;8.48;;;2.40;;
30000;SDS011;16845;48.670;9.000;2022-09-20T11:15:42;7.07;;;1.80;;
30000;SDS011;16845;48.670;9.000;2022-09-20T11:18:14;10.32;;;2.42;;
30000;SDS011;16845;48.670;9.000;2022-09-20T11:20:50;5.50;;;2.15;;
30000;SDS011;16845;48.670;9.000;2022-09-20T11:23:26;10.75;;;2.28;;
30000;SDS011;16845;48.670;9.000;2022-09-20T11:26:03;7.07;;;2.13;;
30000;SDS011;16845;48.670;9.000;2022-09-20T11:28:38;8.15;;;2.17;;
30000;SDS011;16845;48.670;9.000;2022-09-20T11:31:09;6.72;;;1.80;;
30000;SDS011;16845;48.670;9.000;2022-09-20T11:33:45;8.68;;;2.10;;
30000;SDS011;16845;48.670;9.000;2022-09-20T11:36:19;3.67;;;1.40;;
30000;SDS011;16845;48.670;9.000;2022-09-20T11:38:52;8.60;;;2.33;;
30000;SDS011;16845;48.670;9.000;2022-09-20T11:41:25;8.30;;;2.22;;
30000;SDS011;16845;48.670;9.000;2022-09-20T11:43:55;2.67;;;1.45;;
30000;SDS011;16845;48.670;9.000;2022-09-20T11:46:28;5.32;;;1.35;;
30000;SDS011;16845;48.670;9.000;2022-09-20T11:49:00;4.63;;;1.67;;
30000;SDS011;16845;48.670;9.000;2022-09-20T11:51:38;6.25;;;1.70;;
30000;SDS011;16845;48.670;9.000;2022-09-20T11:54:38;4.57;;;1.42;;
30000;SDS011;16845;48.670;9.000;2022-09-20T11:57:27;7.00;;;3.63;;
30000;SDS011;16845;48.670;9.000;2022-09-20T11:59:58;5.43;;;1.65;;
30000;SDS011;16845;48.670;9.000;2022-09-20T12:02:31;6.55;;;1.48;;
30000;SDS011;16845;48.670;9.000;2022-09-20T12:05:02;8.10;;;1.90;;
30000;SDS011;16845;48.670;9.000;2022-09-20T12:07:31;8.85;;;2.35;;
30000;SDS011;16845;48.670;9.000;2022-09-20T12:10:03;6.15;;;2.30;;
30000;SDS011;16845;48.670;9.000;2022-09-20T12:12:36;2.65;;;1.40;;
30000;SDS011;16845;48.670;9.000;2022-09-20T12:15:20;6.35;;;1.73;;
30000;SDS011;16845;48.670;9.000;2022-09-20T12:18:11;9.35;;;2.00;;
30000;SDS011;16845;48.670;9.000;2022-09-20T12:21:03;6.65;;;1.65;;
30000;SDS011;16845;48.670;9.000;2022-09-20T12:26:38;7.80;;;1.77;;
30000;SDS011;16845;48.670;9.000;2022-09-20T12:32:38;8.00;;;2.10;;
30000;SDS011;16845;48.670;9.000;2022-09-20T12:38:29;5.45;;;1.75;;
30000;SDS011;16845;48.670;9.000;2022-09-20T12:41:02;7.97;;;1.70;;
30000;SDS011;16845;48.670;9.000;2022-09-20T12:43:34;3.03;;;1.17;;
30000;SDS011;16845;48.670;9.000;2022-09-20T12:46:05;3.60;;;1.00;;
30000;SDS011;16845;48.670;9.000;2022-09-20T12:48:37;9.18;;;1.38;;
30000;SDS011;16845;48.670;9.000;2022-09-20T12:51:15;3.92;;;1.30;;
30000;SDS011;16845;48.670;9.000;2022-09-20T12:54:06;3.05;;;1.10;;
30000;SDS011;16845;48.670;9.000;2022-09-20T12:56:38;2.85;;;0.93;;
30000;SDS011;16845;48.670;9.000;2022-09-20T12:59:17;3.92;;;1.10;;
30000;SDS011;16845;48.670;9.000;2022-09-20T13:01:48;2.47;;;1.02;;
30000;SDS011;16845;48.670;9.000;2022-09-20T13:07:40;1.60;;;0.70;;
30000;SDS011;16845;48.670;9.000;2022-09-20T13:10:22;1.23;;;0.70;;
30000;SDS011;16845;48.670;9.000;2022-09-20T13:12:56;5.18;;;1.20;;
30000;SDS011;16845;48.670;9.000;2022-09-20T13:15:28;3.80;;;1.30;;
30000;SDS011;16845;48.670;9.000;2022-09-20T13:17:58;4.50;;;0.98;;
30000;SDS011;16845;48.670;9.000;2022-09-20T13:20:28;4.75;;;1.25;;
30000;SDS011;16845;48.670;9.000;2022-09-20T13:23:00;5.43;;;0.88;;
30000;SDS011;16845;48.670;9.000;2022-09-20T13:25:31;4.43;;;2.03;;
30000;SDS011;16845;48.670;9.000;2022-09-20T13:28:04;3.65;;;1.00;;
30000;SDS011;16845;48.670;9.000;2022-09-20T13:30:35;5.97;;;1.50;;
30000;SDS011;16845;48.670;9.000;2022-09-20T13:33:13;4.35;;;1.20;;
30000;SDS011;16845;48.670;9.000;2022-09-20T13:35:43;3.42;;;1.23;;
30000;SDS011;16845;48.670;9.000;2022-09-20T13:38:13;4.55;;;1.48;;
30000;SDS011;16845;48.670;9.000;2022-09-20T13:40:47;2.85;;;1.10;;
30000;SDS011;16845;48.670;9.000;2022-09-20T13:43:18;7.90;;;1.45;;
30000;SDS011;16845;48.670;9.000;2022-09-20T13:45:54;4.13;;;1.20;;
30000;SDS011;16845;48.670;9.000;2022-09-20T13:48:24;6.07;;;1.40;;
30000;SDS011;16845;48.670;9.000;2022-09-20T13:50:53;4.63;;;1.90;;
30000;SDS011;16845;48.670;9.000;2022-09-20T13:53:22;4.05;;;1.52;;
30000;SDS011;16845;48.670;9.000;2022-09-20T13:56:08;5.10;;;1.40;;
30000;SDS011;16845;48.670;9.000;2022-09-20T13:58:39;5.15;;;1.35;;
30000;SDS011;16845;48.670;9.000;2022-09-20T14:01:22;6.50;;;1.80;;
30000;SDS011;16845;48.670;9.000;2022-09-20T14:03:54;7.30;;;1.70;;
30000;SDS011;16845;48.670;9.000;2022-09-20T14:06:29;5.53;;;1.90;;
30000;SDS011;16845;48.670;9.000;2022-09-20T14:08:58;7.90;;;2.13;;
30000;SDS011;16845;48.670;9.000;2022-09-20T14:11:36;7.85;;;1.40;;
30000;SDS011;16845;48.670;9.000;2022-09-20T14:14:07;7.60;;;2.00;;
30000;SDS011;16845;48.670;9.000;2022-09-20T14:16:38;3.95;;;1.15;;
30000;SDS011;16845;48.670;9.000;2022-09-20T14:19:10;9.13;;;2.00;;
30000;SDS011;16845;48.670;9.000;2022-09-20T14:21:40;3.15;;;1.30;;
30000;SDS011;16845;48.670;9.000;2022-09-20T14:24:21;6.57;;;1.77;;
30000;SDS011;16845;48.670;9.000;2022-09-20T14:26:59;7.18;;;1.38;;
30000;SDS011;16845;48.670;9.000;2022-09-20T14:29:38;7.00;;;1.27;;
30000;SDS011;16845;48.670;9.000;2022-09-20T14:32:10;6.47;;;1.15;;
30000;SDS011;16845;48.670;9.000;2022-09-20T14:34:57;5.10;;;1.42;;
30000;SDS011;16845;48.670;9.000;2022-09-20T14:37:28;5.53;;;1.50;;
30000;SDS011;16845;48.670;9.000;2022-09-20T14:39:58;7.63;;;1.77;;
30000;SDS011;16845;48.670;9.000;2022-09-20T14:42:29;6.47;;;1.38;;
30000;SDS011;16845;48.670;9.000;2022-09-20T14:45:02;3.55;;;1.63;;
30000;SDS011;16845;48.670;9.000;2022-09-20T14:47:35;4.88;;;1.45;;
30000;SDS011;16845;48.670;9.000;2022-09-20T14:50:17;6.28;;;1.55;;
30000;SDS011;16845;48.670;9.000;2022-09-20T14:55:56;7.18;;;1.80;;
30000;SDS011;16845;48.670;9.000;2022-09-20T14:58:26;3.85;;;1.52;;
30000;SDS011;16845;48.670;9.000;2022-09-20T15:00:57;5.50;;;1.90;;
30000;SDS011;16845;48.670;9.000;2022-09-20T15:03:31;3.42;;;1.33;;
30000;SDS011;16845;48.670;9.000;2022-09-20T15:06:00;8.52;;;1.30;;
30000;SDS011;16845;48.670;9.000;2022-09-20T15:08:28;5.85;;;1.75;;
30000;SDS011;16845;48.670;9.000;2022-09-20T15:10:57;5.03;;;1.50;;
30000;SDS011;16845;48.670;9.000;2022-09-20T15:13:26;4.32;;;1.35;;
30000;SDS011;16845;48.670;9.000;2022-09-20T15:15:53;5.55;;;1.50;;
30000;SDS011;16845;48.670;9.000;2022-09-20T15:18:24;6.97;;;1.90;;
30000;SDS011;16845;48.670;9.000;2022-09-20T15:20:54;4.10;;;1.60;;
30000;SDS011;16845;48.670;9.000;2022-09-20T15:23:22;3.83;;;2.03;;
30000;SDS011;16845;48.670;9.000;2022-09-20T15:25:50;5.60;;;1.95;;
30000;SDS011;16845;48.670;9.000;2022-09-20T15:28:20;6.40;;;1.50;;
30000;SDS011;16845;48.670;9.000;2022-09-20T15:30:49;5.97;;;1.90;;
30000;SDS011;16845;48.670;9.000;2022-09-20T15:33:19;2.47;;;1.40;;
30000;SDS011;16845;48.670;9.000;2022-09-20T15:35:48;5.32;;;2.30;;
30000;SDS011;16845;48.670;9.000;2022-09-20T15:38:16;6.45;;;1.80;;
30000;SDS011;16845;48.670;9.000;2022-09-20T15:40:45;6.63;;;2.35;;
30000;SDS011;16845;48.670;9.000;2022-09-20T15:43:14;3.95;;;1.88;;
30000;SDS011;16845;48.670;9.000;2022-09-20T15:45:46;3.67;;;1.70;;
30000;SDS011;16845;48.670;9.000;2022-09-20T15:48:16;9.15;;;1.80;;
30000;SDS011;16845;48.670;9.000;2022-09-20T15:51:01;4.38;;;1.52;;
30000;SDS011;16845;48.670;9.000;2022-09-20T15:53:31;2.78;;;1.50;;
30000;SDS011;16845;48.670;9.000;2022-09-20T15:56:00;3.50;;;1.40;;
30000;SDS011;16845;48.670;9.000;2022-09-20T15:58:30;6.20;;;1.75;;
30000;SDS011;16845;48.670;9.000;2022-09-20T16:01:02;3.47;;;1.30;;
30000;SDS011;16845;48.670;9.000;2022-09-20T16:03:31;3.65;;;1.50;;
30000;SDS011;16845;48.670;9.000;2022-09-20T16:06:01;7.55;;;1.58;;
30000;SDS011;16845;48.670;9.000;2022-09-20T16:08:31;3.25;;;1.55;;
30000;SDS011;16845;48.670;9.000;2022-09-20T16:11:00;4.90;;;1.58;;
30000;SDS011;16845;48.670;9.000;2022-09-20T16:13:28;6.03;;;1.83;;
30000;SDS011;16845;48.670;9.000;2022-09-20T16:15:56;7.07;;;1.90;;
30000;SDS011;16845;48.670;9.000;2022-09-20T16:18:25;6.82;;;1.60;;
30000;SDS011;16845;48.670;9.000;2022-09-20T16:21:13;6.60;;;1.60;;